Time;durP1;ratioP1;P1;durP2;ratioP2;P2;SDS_P1;SDS_P2;PMS_P1;PMS_P2;Temp;Humidity;BMP_temperature;BMP_pressure;BME280_temperature;BME280_humidity;BME280_pressure;Samples;Min_cycle;Max_cycle;Signal;HPM_P1;HPM_P2
2023/05/05 00:01:05;;;;;;;5.10;4.17;;;16.70;54.30;;;;;;6131312;23;20395;-76
2023/05/05 00:03:32;;;;;;;8.50;4.37;;;16.70;54.40;;;;;;6135244;23;20366;-75
2023/05/05 00:05:58;;;;;;;8.20;4.40;;;16.70;54.20;;;;;;6131976;23;20203;-74
2023/05/05 00:08:24;;;;;;;3.80;3.37;;;16.70;54.10;;;;;;6106487;23;20364;-74
2023/05/05 00:10:51;;;;;;;3.40;3.00;;;16.80;54.10;;;;;;6130107;23;20215;-75
2023/05/05 00:13:18;;;;;;;3.23;2.93;;;16.80;54.10;;;;;;6131065;23;20140;-77
2023/05/05 00:15:46;;;;;;;4.07;2.90;;;16.80;54.20;;;;;;6133619;23;20817;-76
2023/05/05 00:18:15;;;;;;;4.00;3.60;;;16.80;54.20;;;;;;6135024;23;20364;-77
2023/05/05 00:20:41;;;;;;;4.27;3.67;;;16.80;54.10;;;;;;6137453;23;20431;-76
2023/05/05 00:23:06;;;;;;;4.53;4.00;;;16.80;54.10;;;;;;6139343;23;20371;-75
2023/05/05 00:25:32;;;;;;;3.53;3.23;;;16.80;54.10;;;;;;6112352;23;20155;-76
2023/05/05 00:27:58;;;;;;;4.03;3.63;;;16.70;54.10;;;;;;6138082;23;20479;-77
2023/05/05 00:30:23;;;;;;;3.10;2.80;;;16.70;54.30;;;;;;6134887;23;20163;-76
2023/05/05 00:32:49;;;;;;;3.47;3.17;;;16.60;54.60;;;;;;6135745;23;20136;-76
2023/05/05 00:35:16;;;;;;;6.17;3.83;;;16.60;54.90;;;;;;6109635;23;20192;-79
2023/05/05 00:37:43;;;;;;;5.40;4.57;;;16.50;55.60;;;;;;6135895;23;20529;-78
2023/05/05 00:40:09;;;;;;;4.50;3.77;;;16.60;55.60;;;;;;6110359;23;20445;-75
2023/05/05 00:42:40;;;;;;;3.30;3.07;;;16.60;55.60;;;;;;6135196;23;20354;-74
2023/05/05 00:45:06;;;;;;;5.13;3.70;;;16.50;56.20;;;;;;6109457;23;20380;-75
2023/05/05 00:47:31;;;;;;;4.03;3.63;;;16.50;55.90;;;;;;6107625;23;20387;-74
2023/05/05 00:49:57;;;;;;;4.37;3.17;;;16.40;56.10;;;;;;6109106;23;20167;-73
2023/05/05 00:52:23;;;;;;;4.00;2.93;;;16.30;56.30;;;;;;6134517;23;20332;-75
2023/05/05 00:54:49;;;;;;;2.77;2.40;;;16.20;56.70;;;;;;6113794;23;20144;-75
2023/05/05 00:57:15;;;;;;;2.33;2.13;;;16.10;56.90;;;;;;6135588;23;20128;-74
2023/05/05 00:59:42;;;;;;;2.60;2.33;;;16.00;57.20;;;;;;6137518;23;20199;-75
2023/05/05 01:02:08;;;;;;;2.50;2.00;;;16.00;57.50;;;;;;6087034;23;20371;-74
2023/05/05 01:04:34;;;;;;;2.60;2.23;;;16.00;57.70;;;;;;6136862;23;20364;-74
2023/05/05 01:07:32;;;;;;;7.07;4.20;;;15.90;58.00;;;;;;6135250;23;20403;-74
2023/05/05 01:10:22;;;;;;;3.73;3.40;;;15.80;58.40;;;;;;6105756;23;20186;-75
2023/05/05 01:12:52;;;;;;;4.10;3.03;;;15.80;58.70;;;;;;6131281;23;20650;-74
2023/05/05 01:15:35;;;;;;;4.47;4.03;;;15.80;59.20;;;;;;6104631;23;20388;-73
2023/05/05 01:18:22;;;;;;;5.43;3.90;;;15.70;59.40;;;;;;6104366;23;20443;-75
2023/05/05 01:21:14;;;;;;;2.80;2.40;;;15.60;59.80;;;;;;6080409;23;20431;-75
2023/05/05 01:23:54;;;;;;;5.20;3.17;;;15.60;61.20;;;;;;6104418;23;20379;-74
2023/05/05 01:26:46;;;;;;;3.63;3.33;;;15.50;60.80;;;;;;6130365;23;20417;-73
2023/05/05 01:29:33;;;;;;;4.20;3.00;;;15.50;61.40;;;;;;6129805;23;20405;-74
2023/05/05 01:32:14;;;;;;;3.90;3.27;;;15.50;62.10;;;;;;6129994;23;20376;-74
2023/05/05 01:34:48;;;;;;;6.23;4.30;;;15.40;62.50;;;;;;6104295;23;20466;-73
2023/05/05 01:37:29;;;;;;;4.60;4.10;;;15.40;63.00;;;;;;6079919;23;20423;-73
2023/05/05 01:39:58;;;;;;;5.07;3.90;;;15.40;63.80;;;;;;6103251;23;20454;-75
2023/05/05 01:42:26;;;;;;;4.00;3.37;;;15.40;64.00;;;;;;6129495;23;20626;-74
2023/05/05 01:44:53;;;;;;;6.70;4.10;;;15.30;64.30;;;;;;6103816;23;20374;-74
2023/05/05 01:47:20;;;;;;;4.10;3.47;;;15.30;65.00;;;;;;6080435;23;20402;-73
2023/05/05 01:49:47;;;;;;;3.37;2.90;;;15.30;65.60;;;;;;6103585;23;20406;-72
2023/05/05 01:52:17;;;;;;;3.73;2.80;;;15.30;65.90;;;;;;6103897;23;20662;-73
2023/05/05 01:54:48;;;;;;;3.70;3.10;;;15.20;66.30;;;;;;6130001;23;20375;-73
2023/05/05 01:57:15;;;;;;;3.50;2.83;;;15.20;67.00;;;;;;6103810;23;20446;-73
2023/05/05 01:59:41;;;;;;;3.33;2.80;;;15.10;67.60;;;;;;6103086;23;20689;-74
2023/05/05 02:02:09;;;;;;;4.40;3.03;;;15.10;68.30;;;;;;6130083;23;20356;-73
2023/05/05 02:04:39;;;;;;;3.63;2.93;;;15.00;69.00;;;;;;6133818;23;20132;-73
2023/05/05 02:07:06;;;;;;;3.50;3.07;;;15.00;69.90;;;;;;6109588;23;20358;-73
2023/05/05 02:09:32;;;;;;;3.67;3.37;;;15.00;70.40;;;;;;6107084;23;20419;-72
2023/05/05 02:11:59;;;;;;;3.83;2.90;;;14.90;71.30;;;;;;6110644;23;20368;-73
2023/05/05 02:14:28;;;;;;;2.70;2.30;;;14.90;71.60;;;;;;6109991;23;20368;-73
2023/05/05 02:16:56;;;;;;;3.40;3.00;;;14.90;72.10;;;;;;6130164;23;20544;-73
2023/05/05 02:19:27;;;;;;;3.30;3.00;;;14.90;73.10;;;;;;6130471;23;20440;-73
2023/05/05 02:21:53;;;;;;;3.37;3.00;;;14.90;74.10;;;;;;6131088;23;20366;-74
2023/05/05 02:24:19;;;;;;;4.67;3.67;;;14.90;74.40;;;;;;6130508;23;20387;-74
2023/05/05 02:26:47;;;;;;;5.00;3.07;;;14.90;74.70;;;;;;6129997;23;20462;-74
2023/05/05 02:29:33;;;;;;;3.90;3.10;;;14.90;75.00;;;;;;6129119;23;20168;-73
2023/05/05 02:32:05;;;;;;;3.00;2.70;;;15.00;76.10;;;;;;6078856;23;20378;-74
2023/05/05 02:34:36;;;;;;;3.93;2.80;;;15.00;75.90;;;;;;6104067;23;20673;-74
2023/05/05 02:37:08;;;;;;;5.47;4.37;;;15.00;76.60;;;;;;6103237;23;20454;-74
2023/05/05 02:39:43;;;;;;;4.50;3.90;;;15.00;77.10;;;;;;6103328;23;20430;-73
2023/05/05 02:42:17;;;;;;;3.77;3.37;;;15.00;77.60;;;;;;6103649;23;20383;-73
2023/05/05 02:44:44;;;;;;;5.20;4.10;;;15.00;79.10;;;;;;6104117;23;20368;-73
2023/05/05 02:47:11;;;;;;;3.57;3.20;;;14.90;79.70;;;;;;6104217;23;20397;-74
2023/05/05 02:49:36;;;;;;;3.57;3.23;;;14.80;79.90;;;;;;6129529;23;20402;-72
2023/05/05 02:52:02;;;;;;;3.43;2.40;;;14.80;81.10;;;;;;6129925;23;20139;-73
2023/05/05 02:54:32;;;;;;;2.63;2.03;;;14.70;82.30;;;;;;6106342;23;20173;-74
2023/05/05 02:56:59;;;;;;;3.07;2.53;;;14.70;83.30;;;;;;6106914;23;20720;-73
2023/05/05 02:59:40;;;;;;;3.90;2.47;;;14.70;84.20;;;;;;6106440;23;20434;-73
2023/05/05 03:02:20;;;;;;;2.60;2.40;;;14.60;85.80;;;;;;6106097;23;20716;-73
2023/05/05 03:05:12;;;;;;;3.80;2.63;;;14.60;86.60;;;;;;6081979;23;20396;-74
2023/05/05 03:07:53;;;;;;;4.07;3.60;;;14.60;87.30;;;;;;6092126;23;20374;-74
2023/05/05 03:10:24;;;;;;;4.60;4.17;;;14.70;88.00;;;;;;6105378;23;20465;-74
2023/05/05 03:12:54;;;;;;;6.00;5.23;;;14.80;88.60;;;;;;6082123;23;20864;-74
2023/05/05 03:15:49;;;;;;;4.87;3.93;;;14.80;90.30;;;;;;6104881;23;20478;-73
2023/05/05 03:18:20;;;;;;;4.77;4.27;;;14.90;89.90;;;;;;6105327;23;20383;-74
2023/05/05 03:20:52;;;;;;;3.30;2.83;;;15.00;89.30;;;;;;6105171;23;20756;-73
2023/05/05 03:23:19;;;;;;;3.80;2.90;;;15.00;89.10;;;;;;6106721;23;20384;-73
2023/05/05 03:25:48;;;;;;;3.40;2.60;;;15.00;89.20;;;;;;6106990;23;20371;-74
2023/05/05 03:28:26;;;;;;;3.00;2.50;;;15.00;89.70;;;;;;6084182;23;20368;-73
2023/05/05 03:30:53;;;;;;;4.50;2.97;;;15.00;90.10;;;;;;6105846;23;20406;-74
2023/05/05 03:33:18;;;;;;;3.10;2.80;;;14.90;90.30;;;;;;6110777;23;20382;-74
2023/05/05 03:35:44;;;;;;;3.83;3.43;;;14.90;90.80;;;;;;6105096;23;20485;-74
2023/05/05 03:38:12;;;;;;;3.93;3.03;;;14.80;91.20;;;;;;6105661;23;20172;-73
2023/05/05 03:40:38;;;;;;;3.50;2.73;;;14.80;91.70;;;;;;6105464;23;20456;-74
2023/05/05 03:43:04;;;;;;;4.33;3.27;;;14.70;92.30;;;;;;6105631;23;20378;-73
2023/05/05 03:45:30;;;;;;;4.80;3.50;;;14.60;92.90;;;;;;6105595;23;20176;-73
2023/05/05 03:47:56;;;;;;;3.30;2.80;;;14.50;93.40;;;;;;6130603;23;20434;-74
2023/05/05 03:50:23;;;;;;;5.13;4.23;;;14.50;94.00;;;;;;6106613;23;20416;-76
2023/05/05 03:52:49;;;;;;;3.97;3.57;;;14.40;94.50;;;;;;6106718;23;20155;-73
2023/05/05 03:55:15;;;;;;;4.63;2.93;;;14.40;95.10;;;;;;6106697;23;20365;-74
2023/05/05 03:57:40;;;;;;;4.17;2.83;;;14.40;95.70;;;;;;6106741;23;20139;-74
2023/05/05 04:00:09;;;;;;;2.70;2.50;;;14.30;96.10;;;;;;6146308;23;20176;-74
2023/05/05 04:02:39;;;;;;;3.70;3.03;;;14.30;96.50;;;;;;6133806;23;20533;-74
2023/05/05 04:05:06;;;;;;;3.87;3.27;;;14.30;97.00;;;;;;6105072;23;20372;-73
2023/05/05 04:07:32;;;;;;;6.17;4.63;;;14.30;97.20;;;;;;6131482;23;20443;-74
2023/05/05 04:09:57;;;;;;;4.80;4.30;;;14.30;97.50;;;;;;6130794;23;20174;-74
2023/05/05 04:12:23;;;;;;;4.47;4.07;;;14.30;97.90;;;;;;6106097;23;20216;-75
2023/05/05 04:14:49;;;;;;;4.70;4.30;;;14.30;98.40;;;;;;6106012;23;20159;-74
2023/05/05 04:17:15;;;;;;;4.93;4.17;;;14.30;99.30;;;;;;6106991;23;20169;-74
2023/05/05 04:19:40;;;;;;;4.27;3.70;;;14.40;99.00;;;;;;6105831;23;20184;-74
2023/05/05 04:22:07;;;;;;;4.37;3.60;;;14.40;99.10;;;;;;6107776;23;20147;-73
2023/05/05 04:24:33;;;;;;;3.30;3.00;;;14.50;99.20;;;;;;6108205;23;20460;-74
2023/05/05 04:26:58;;;;;;;3.23;2.43;;;14.50;99.40;;;;;;6108745;23;20283;-76
2023/05/05 04:29:25;;;;;;;5.13;4.60;;;14.60;99.60;;;;;;6107979;23;20199;-75
2023/05/05 04:31:52;;;;;;;5.70;4.40;;;14.60;99.30;;;;;;6107714;23;20384;-75
2023/05/05 04:34:18;;;;;;;4.80;3.93;;;14.70;99.00;;;;;;6108990;23;20194;-75
2023/05/05 04:36:43;;;;;;;6.47;4.43;;;14.80;99.00;;;;;;6133170;23;20414;-77
2023/05/05 04:39:09;;;;;;;5.50;5.00;;;15.00;98.70;;;;;;6134068;23;20190;-77
2023/05/05 04:41:35;;;;;;;5.00;4.50;;;15.10;99.10;;;;;;6135152;23;20305;-78
2023/05/05 04:44:01;;;;;;;4.90;4.30;;;15.20;98.50;;;;;;6108108;23;20527;-75
2023/05/05 04:46:27;;;;;;;6.10;4.03;;;15.30;98.20;;;;;;6108522;23;20154;-76
2023/05/05 04:48:52;;;;;;;4.23;3.53;;;15.50;98.10;;;;;;6134644;23;20370;-78
2023/05/05 04:51:18;;;;;;;4.00;3.60;;;15.60;97.80;;;;;;6109075;23;20147;-77
2023/05/05 04:53:44;;;;;;;4.40;4.00;;;15.70;97.60;;;;;;6085913;23;20509;-76
2023/05/05 04:56:10;;;;;;;5.93;4.00;;;15.70;97.70;;;;;;6135786;23;20545;-78
2023/05/05 04:58:36;;;;;;;5.70;4.60;;;15.80;97.60;;;;;;6109261;23;20827;-76
2023/05/05 05:01:02;;;;;;;5.40;4.80;;;15.80;97.90;;;;;;6111552;23;20168;-77
2023/05/05 05:03:27;;;;;;;4.90;3.27;;;15.90;98.30;;;;;;6141740;23;20132;-77
2023/05/05 05:05:53;;;;;;;8.03;6.07;;;15.90;98.50;;;;;;6116000;23;20372;-76
2023/05/05 05:08:19;;;;;;;7.47;6.67;;;16.00;99.90;;;;;;6116418;23;20476;-76
2023/05/05 05:10:44;;;;;;;8.37;5.83;;;16.00;99.90;;;;;;6143599;23;20194;-78
2023/05/05 05:13:10;;;;;;;6.83;5.90;;;16.10;99.90;;;;;;6093421;23;20171;-78
2023/05/05 05:15:38;;;;;;;6.47;5.40;;;16.10;99.90;;;;;;6142938;23;20152;-75
2023/05/05 05:18:04;;;;;;;9.10;5.90;;;16.10;99.90;;;;;;6093530;23;20152;-78
2023/05/05 05:20:32;;;;;;;10.20;6.40;;;16.20;99.90;;;;;;6116211;23;20534;-80
2023/05/05 05:23:00;;;;;;;8.43;5.80;;;16.30;99.90;;;;;;6093812;23;20872;-75
2023/05/05 05:25:27;;;;;;;5.60;4.90;;;16.40;99.90;;;;;;6095044;23;20408;-78
2023/05/05 05:27:53;;;;;;;5.40;4.90;;;16.40;99.70;;;;;;6123779;23;20372;-76
2023/05/05 05:30:19;;;;;;;6.90;5.40;;;16.50;99.70;;;;;;6117243;23;20407;-77
2023/05/05 05:32:45;;;;;;;5.30;4.70;;;16.60;99.70;;;;;;6119405;23;20176;-77
2023/05/05 05:35:11;;;;;;;7.00;5.90;;;16.70;99.60;;;;;;6095392;23;20216;-75
2023/05/05 05:37:38;;;;;;;5.77;5.20;;;16.70;99.60;;;;;;6119514;23;20394;-76
2023/05/05 05:40:04;;;;;;;5.90;4.30;;;16.80;99.20;;;;;;6097578;23;20514;-79
2023/05/05 05:42:32;;;;;;;4.97;4.47;;;17.00;98.90;;;;;;6122067;23;20136;-78
2023/05/05 05:44:58;;;;;;;6.87;4.63;;;17.10;98.40;;;;;;6122462;23;20367;-79
2023/05/05 05:47:24;;;;;;;6.90;6.20;;;17.20;98.10;;;;;;6121602;23;20398;-80
2023/05/05 05:49:51;;;;;;;7.80;5.63;;;17.20;97.80;;;;;;6123119;23;20446;-76
2023/05/05 05:52:18;;;;;;;6.00;5.43;;;17.40;97.60;;;;;;6098580;23;20375;-75
2023/05/05 05:54:44;;;;;;;6.57;5.60;;;17.40;97.50;;;;;;6095786;23;20399;-77
2023/05/05 05:57:10;;;;;;;6.30;5.70;;;17.50;97.50;;;;;;6143951;23;20412;-75
2023/05/05 05:59:36;;;;;;;11.70;8.00;;;17.60;97.00;;;;;;6118138;23;20187;-76
2023/05/05 06:02:03;;;;;;;10.47;6.63;;;17.80;96.50;;;;;;6117534;23;20404;-76
2023/05/05 06:04:30;;;;;;;9.13;7.07;;;18.00;96.00;;;;;;6117826;23;20391;-77
2023/05/05 06:06:56;;;;;;;12.40;8.70;;;18.10;95.10;;;;;;6143531;23;20352;-75
2023/05/05 06:09:22;;;;;;;14.23;8.50;;;18.20;94.30;;;;;;6092487;23;20171;-75
2023/05/05 06:11:48;;;;;;;13.20;8.50;;;18.30;94.00;;;;;;6117560;23;20144;-75
2023/05/05 06:14:13;;;;;;;11.10;7.37;;;18.20;94.50;;;;;;6143705;23;20410;-76
2023/05/05 06:16:39;;;;;;;14.27;7.93;;;18.20;95.00;;;;;;6143623;23;20529;-77
2023/05/05 06:19:10;;;;;;;13.87;10.30;;;18.30;94.70;;;;;;6120577;23;20181;-76
2023/05/05 06:21:36;;;;;;;14.57;11.20;;;18.30;95.00;;;;;;6121627;23;20360;-78
2023/05/05 06:24:02;;;;;;;13.97;9.60;;;18.30;94.80;;;;;;6143917;23;20360;-75
2023/05/05 06:26:30;;;;;;;12.90;9.37;;;18.20;95.30;;;;;;6118619;23;20373;-76
2023/05/05 06:28:55;;;;;;;13.10;8.40;;;18.20;95.80;;;;;;6145250;23;20524;-77
2023/05/05 06:31:21;;;;;;;14.67;10.10;;;18.30;95.70;;;;;;6119576;23;20380;-76
2023/05/05 06:33:47;;;;;;;18.73;9.47;;;18.50;94.90;;;;;;6143824;23;20141;-76
2023/05/05 06:36:12;;;;;;;16.53;9.87;;;18.60;94.80;;;;;;6114842;23;20184;-77
2023/05/05 06:38:38;;;;;;;12.10;10.83;;;18.80;93.90;;;;;;6115931;23;20151;-75
2023/05/05 06:41:04;;;;;;;14.00;11.53;;;18.80;93.10;;;;;;6091004;23;20176;-78
2023/05/05 06:43:30;;;;;;;10.50;9.50;;;18.80;93.40;;;;;;6068616;23;20217;-79
2023/05/05 06:46:00;;;;;;;9.73;8.73;;;18.70;94.00;;;;;;6097347;23;20164;-78
2023/05/05 06:48:26;;;;;;;14.50;11.10;;;18.80;94.40;;;;;;6095986;23;20365;-78
2023/05/05 06:50:51;;;;;;;14.33;9.53;;;18.80;94.60;;;;;;6072751;23;20184;-77
2023/05/05 06:53:17;;;;;;;12.20;8.10;;;18.90;94.50;;;;;;6074594;23;20144;-77
2023/05/05 06:55:50;;;;;;;10.40;7.23;;;19.00;93.90;;;;;;6087037;23;20158;-76
2023/05/05 06:58:15;;;;;;;11.53;8.40;;;19.20;92.80;;;;;;6049801;23;20396;-74
2023/05/05 07:00:42;;;;;;;9.53;6.53;;;19.50;91.70;;;;;;6084725;23;20509;-73
2023/05/05 07:03:08;;;;;;;11.90;8.53;;;19.70;90.60;;;;;;6060067;23;20169;-74
2023/05/05 07:05:35;;;;;;;11.93;10.07;;;19.90;88.90;;;;;;6085395;23;20370;-75
2023/05/05 07:08:01;;;;;;;11.17;8.80;;;20.10;85.10;;;;;;6088133;23;20199;-75
2023/05/05 07:10:32;;;;;;;11.67;10.27;;;20.10;84.00;;;;;;6062324;23;20423;-76
2023/05/05 07:12:58;;;;;;;9.07;8.17;;;20.00;84.40;;;;;;6085129;23;20395;-75
2023/05/05 07:15:27;;;;;;;10.97;9.00;;;20.00;85.50;;;;;;6086854;23;20364;-75
2023/05/05 07:17:56;;;;;;;10.90;9.30;;;20.00;85.50;;;;;;6064102;23;20163;-75
2023/05/05 07:20:21;;;;;;;10.27;9.20;;;20.00;85.30;;;;;;6061834;23;20416;-74
2023/05/05 07:22:47;;;;;;;12.23;8.43;;;20.00;84.50;;;;;;6062231;23;20474;-76
2023/05/05 07:25:15;;;;;;;10.57;7.57;;;20.00;84.60;;;;;;6089562;23;20136;-77
2023/05/05 07:27:41;;;;;;;12.97;10.03;;;20.10;84.40;;;;;;6087617;23;20160;-75
2023/05/05 07:30:08;;;;;;;8.17;7.27;;;20.20;81.50;;;;;;6066951;23;20395;-76
2023/05/05 07:32:34;;;;;;;12.27;10.17;;;20.30;80.60;;;;;;6067297;23;20145;-74
2023/05/05 07:35:00;;;;;;;13.13;10.53;;;20.40;78.50;;;;;;6063743;23;20443;-77
2023/05/05 07:37:26;;;;;;;11.00;9.80;;;20.20;74.20;;;;;;6087551;23;20382;-74
2023/05/05 07:39:54;;;;;;;7.70;6.90;;;20.00;75.60;;;;;;6060959;23;20191;-76
2023/05/05 07:42:20;;;;;;;17.00;10.53;;;20.10;76.40;;;;;;6066565;23;20203;-77
2023/05/05 07:44:45;;;;;;;10.80;9.23;;;20.20;73.90;;;;;;6088111;23;20797;-76
2023/05/05 07:47:11;;;;;;;9.60;8.60;;;20.20;73.80;;;;;;6067007;23;20152;-76
2023/05/05 07:49:37;;;;;;;8.67;7.10;;;20.20;74.40;;;;;;6086469;23;20182;-76
2023/05/05 07:52:02;;;;;;;7.90;6.30;;;20.30;74.30;;;;;;6086575;23;20143;-78
2023/05/05 07:54:28;;;;;;;8.37;7.17;;;20.40;73.00;;;;;;6111916;23;20204;-77
2023/05/05 07:56:54;;;;;;;8.37;7.47;;;20.50;72.20;;;;;;6086354;23;20174;-75
2023/05/05 07:59:20;;;;;;;9.17;8.30;;;20.70;71.10;;;;;;6090708;23;20179;-77
2023/05/05 08:01:46;;;;;;;9.90;8.40;;;20.80;68.80;;;;;;6089405;23;20573;-74
2023/05/05 08:04:11;;;;;;;5.97;5.40;;;20.70;67.90;;;;;;6086515;23;20428;-76
2023/05/05 08:06:37;;;;;;;12.10;7.40;;;20.80;64.40;;;;;;6085974;23;20151;-74
2023/05/05 08:09:03;;;;;;;6.73;5.57;;;20.90;59.50;;;;;;6089857;23;20148;-79
2023/05/05 08:11:29;;;;;;;5.90;4.90;;;20.80;60.10;;;;;;6073633;23;20195;-78
2023/05/05 08:13:55;;;;;;;5.10;4.10;;;20.90;59.60;;;;;;6069854;23;20375;-77
2023/05/05 08:16:21;;;;;;;4.83;4.10;;;21.00;59.50;;;;;;6066456;23;20216;-77
2023/05/05 08:18:47;;;;;;;8.80;5.90;;;21.10;59.10;;;;;;6069060;23;20392;-77
2023/05/05 08:21:13;;;;;;;7.30;5.70;;;21.10;58.10;;;;;;6068728;23;20172;-77
2023/05/05 08:23:38;;;;;;;3.90;2.90;;;21.10;57.00;;;;;;6065298;23;20428;-77
2023/05/05 08:26:05;;;;;;;8.67;7.27;;;21.10;53.60;;;;;;6089581;23;20406;-77
2023/05/05 08:28:37;;;;;;;15.93;6.70;;;21.10;55.30;;;;;;6091868;23;20133;-74
2023/05/05 08:31:04;;;;;;;8.30;6.70;;;21.10;56.60;;;;;;6090222;23;20380;-77
2023/05/05 08:33:30;;;;;;;10.63;8.60;;;21.30;56.80;;;;;;6092488;23;20360;-77
2023/05/05 08:35:56;;;;;;;9.00;8.10;;;21.50;56.60;;;;;;6108232;23;20419;-77
2023/05/05 08:38:22;;;;;;;9.40;7.43;;;21.70;56.50;;;;;;6100826;23;20376;-78
2023/05/05 08:40:50;;;;;;;5.77;5.17;;;21.80;56.40;;;;;;6096565;23;20451;-72
2023/05/05 08:43:19;;;;;;;13.43;10.03;;;22.00;56.30;;;;;;6115222;23;20148;-77
2023/05/05 08:45:46;;;;;;;11.60;9.73;;;22.10;55.60;;;;;;6117763;23;20368;-77
2023/05/05 08:48:16;;;;;;;6.60;5.90;;;22.10;55.00;;;;;;6119552;23;20442;-78
2023/05/05 08:50:46;;;;;;;7.30;6.17;;;22.10;55.10;;;;;;6095076;23;20396;-76
2023/05/05 08:53:16;;;;;;;6.60;5.70;;;21.90;55.20;;;;;;6121633;23;20391;-78
2023/05/05 08:56:02;;;;;;;8.43;7.53;;;21.90;55.40;;;;;;6123182;23;20380;-78
2023/05/05 08:58:30;;;;;;;9.60;8.70;;;21.90;55.10;;;;;;6100994;23;20372;-78
2023/05/05 09:00:56;;;;;;;11.17;9.97;;;21.70;55.40;;;;;;6146210;23;20403;-79
2023/05/05 09:03:24;;;;;;;11.87;10.70;;;21.40;56.00;;;;;;6102091;23;20360;-77
2023/05/05 09:05:50;;;;;;;11.67;10.10;;;21.30;56.60;;;;;;6102685;23;20402;-78
2023/05/05 09:08:16;;;;;;;7.57;6.87;;;21.40;57.00;;;;;;6127234;23;20379;-79
2023/05/05 09:10:43;;;;;;;8.60;7.70;;;21.60;56.70;;;;;;6128491;23;20152;-79
2023/05/05 09:13:09;;;;;;;8.60;7.70;;;22.00;56.40;;;;;;6100271;23;20368;-78
2023/05/05 09:15:37;;;;;;;10.23;8.80;;;22.30;55.20;;;;;;6125547;23;20368;-79
2023/05/05 09:18:07;;;;;;;16.07;11.93;;;22.60;54.60;;;;;;6097569;23;20269;-79
2023/05/05 09:20:38;;;;;;;11.97;10.60;;;22.60;53.80;;;;;;6098780;23;20428;-79
2023/05/05 09:23:12;;;;;;;10.80;9.57;;;22.10;54.30;;;;;;6126420;23;20362;-79
2023/05/05 09:25:39;;;;;;;6.80;6.17;;;22.00;55.00;;;;;;6125638;23;20368;-79
2023/05/05 09:28:10;;;;;;;7.60;6.83;;;22.30;55.00;;;;;;6095773;23;20391;-78
2023/05/05 09:30:36;;;;;;;8.53;6.90;;;22.70;54.60;;;;;;6095949;23;20399;-77
2023/05/05 09:33:02;;;;;;;13.87;12.47;;;22.90;54.20;;;;;;6124361;23;20427;-77
2023/05/05 09:35:46;;;;;;;16.10;13.67;;;22.80;54.90;;;;;;6124223;23;20432;-78
2023/05/05 09:38:11;;;;;;;11.40;10.30;;;22.80;54.90;;;;;;6123263;23;20694;-77
2023/05/05 09:40:48;;;;;;;17.53;11.60;;;22.50;55.50;;;;;;6118651;23;20427;-79
2023/05/05 09:43:15;;;;;;;12.07;9.83;;;22.20;56.20;;;;;;6094634;23;20151;-77
2023/05/05 09:45:42;;;;;;;11.73;10.10;;;21.90;56.90;;;;;;6094263;23;20376;-77
2023/05/05 09:48:28;;;;;;;13.50;12.10;;;21.80;57.40;;;;;;6118343;23;20510;-79
2023/05/05 09:50:55;;;;;;;19.00;14.90;;;21.60;58.30;;;;;;6119762;23;20395;-78
2023/05/05 09:53:21;;;;;;;16.23;14.53;;;21.40;59.30;;;;;;6114869;23;20387;-78
2023/05/05 09:55:54;;;;;;;10.23;9.13;;;21.30;59.80;;;;;;6093511;23;20469;-76
2023/05/05 09:58:22;;;;;;;13.30;11.90;;;21.40;59.90;;;;;;6089175;23;20406;-78
2023/05/05 10:00:49;;;;;;;12.37;11.10;;;21.70;58.90;;;;;;6094099;23;20427;-78
2023/05/05 10:03:15;;;;;;;10.23;8.17;;;22.00;57.60;;;;;;6094552;23;20368;-78
2023/05/05 10:05:45;;;;;;;9.97;9.07;;;22.30;56.60;;;;;;6116258;23;20391;-76
2023/05/05 10:08:12;;;;;;;8.23;7.43;;;22.50;56.20;;;;;;6119342;23;20136;-75
2023/05/05 10:10:59;;;;;;;10.23;8.20;;;22.70;56.00;;;;;;6091317;23;20940;-78
2023/05/05 10:13:25;;;;;;;8.00;6.27;;;23.00;55.30;;;;;;6095002;23;20801;-78
2023/05/05 10:15:56;;;;;;;9.73;8.60;;;23.60;54.30;;;;;;6146497;23;20431;-78
2023/05/05 10:18:24;;;;;;;9.00;8.13;;;24.00;52.60;;;;;;6098884;23;20387;-80
2023/05/05 10:21:00;;;;;;;8.83;7.77;;;24.00;51.70;;;;;;6100926;23;20415;-79
2023/05/05 10:23:48;;;;;;;5.63;5.00;;;23.80;51.30;;;;;;6097749;23;20379;-79
2023/05/05 10:26:22;;;;;;;5.07;4.60;;;23.60;51.50;;;;;;6121810;23;20445;-74
2023/05/05 10:28:52;;;;;;;6.37;4.73;;;23.60;51.50;;;;;;6120619;23;20393;-77
2023/05/05 10:31:36;;;;;;;11.37;7.57;;;23.70;51.30;;;;;;6101742;23;20372;-79
2023/05/05 10:34:19;;;;;;;9.00;6.50;;;23.70;51.10;;;;;;6101241;23;20416;-78
2023/05/05 10:36:46;;;;;;;5.80;5.13;;;23.80;51.80;;;;;;6096264;23;20436;-79
2023/05/05 10:39:15;;;;;;;5.73;4.20;;;24.20;50.80;;;;;;6071687;23;20404;-78
2023/05/05 10:41:43;;;;;;;5.77;5.23;;;24.60;49.90;;;;;;6073238;23;20434;-79
2023/05/05 10:44:10;;;;;;;7.30;5.60;;;24.80;49.00;;;;;;6073551;23;20456;-79
2023/05/05 10:46:36;;;;;;;6.27;5.50;;;24.80;48.90;;;;;;6074502;23;20391;-79
2023/05/05 10:49:34;;;;;;;9.60;7.10;;;25.10;48.30;;;;;;6073307;23;20412;-80
2023/05/05 10:52:03;;;;;;;9.67;8.77;;;25.10;48.00;;;;;;6071768;23;20365;-80
2023/05/05 10:54:44;;;;;;;10.13;9.13;;;24.90;48.60;;;;;;6097947;23;20376;-79
2023/05/05 10:57:12;;;;;;;8.20;7.10;;;24.90;48.50;;;;;;6072640;23;20392;-79
2023/05/05 10:59:40;;;;;;;12.50;8.40;;;24.70;49.20;;;;;;6072821;23;20432;-80
2023/05/05 11:02:29;;;;;;;7.37;5.80;;;24.30;48.70;;;;;;6072760;23;20387;-79
2023/05/05 11:05:20;;;;;;;7.67;6.43;;;23.90;49.00;;;;;;6070013;23;20384;-80
2023/05/05 11:07:48;;;;;;;14.63;7.40;;;23.60;47.80;;;;;;6089259;23;20368;-78
2023/05/05 11:10:19;;;;;;;8.87;6.90;;;23.20;48.70;;;;;;6091265;23;20400;-79
2023/05/05 11:13:07;;;;;;;7.73;6.20;;;22.70;50.00;;;;;;6073311;23;20361;-79
2023/05/05 11:15:36;;;;;;;7.00;6.23;;;22.30;51.60;;;;;;6099310;23;20427;-80
2023/05/05 11:18:03;;;;;;;10.27;9.20;;;22.00;52.50;;;;;;6098190;23;20383;-79
2023/05/05 11:20:42;;;;;;;11.63;9.90;;;21.80;54.10;;;;;;6098968;23;20428;-78
2023/05/05 11:23:07;;;;;;;10.90;9.10;;;21.70;55.50;;;;;;6073396;23;20487;-79
2023/05/05 11:25:34;;;;;;;10.57;7.80;;;21.50;56.60;;;;;;6096369;23;20584;-79
2023/05/05 11:28:10;;;;;;;8.87;4.93;;;21.10;58.30;;;;;;6075261;23;20449;-79
2023/05/05 11:30:57;;;;;;;3.60;3.00;;;20.60;59.50;;;;;;6071361;23;20168;-79
2023/05/05 11:33:37;;;;;;;6.53;2.70;;;19.70;64.70;;;;;;6073368;23;20372;-78
2023/05/05 11:36:16;;;;;;;7.20;2.50;;;19.20;74.20;;;;;;6078299;23;20423;-78
2023/05/05 11:39:01;;;;;;;2.27;1.87;;;18.60;88.80;;;;;;6089384;23;20367;-76
2023/05/05 11:41:32;;;;;;;2.70;2.03;;;18.10;96.70;;;;;;6067367;23;20416;-76
2023/05/05 11:44:07;;;;;;;2.53;2.13;;;17.40;99.90;;;;;;6119950;23;20359;-78
2023/05/05 11:46:33;;;;;;;3.70;2.83;;;16.90;99.90;;;;;;6119055;23;20390;-77
2023/05/05 11:48:58;;;;;;;5.13;3.50;;;16.50;99.90;;;;;;6117176;23;20396;-77
2023/05/05 11:51:25;;;;;;;5.90;3.30;;;16.10;99.90;;;;;;6068771;23;20151;-79
2023/05/05 11:53:51;;;;;;;4.93;3.80;;;15.70;99.90;;;;;;6097527;23;20152;-78
2023/05/05 11:56:21;;;;;;;5.13;4.07;;;15.50;99.90;;;;;;6124388;23;20388;-79
2023/05/05 11:58:48;;;;;;;4.57;4.13;;;15.30;99.90;;;;;;6098734;23;20419;-78
2023/05/05 12:01:15;;;;;;;5.10;4.17;;;15.20;99.90;;;;;;6097958;23;20419;-78
2023/05/05 12:03:43;;;;;;;3.83;3.40;;;15.20;99.90;;;;;;6097098;23;20369;-77
2023/05/05 12:06:10;;;;;;;6.60;4.30;;;15.40;99.90;;;;;;6097200;23;20380;-76
2023/05/05 12:08:39;;;;;;;4.20;3.67;;;15.60;99.90;;;;;;6099068;23;20369;-77
2023/05/05 12:11:07;;;;;;;4.20;3.67;;;15.70;99.90;;;;;;6094937;23;20212;-77
2023/05/05 12:13:35;;;;;;;4.10;3.37;;;15.70;99.90;;;;;;6074307;23;20460;-78
2023/05/05 12:16:08;;;;;;;4.30;3.90;;;15.90;99.90;;;;;;6093635;23;20396;-77
2023/05/05 12:18:34;;;;;;;4.23;3.83;;;16.10;99.90;;;;;;6069569;23;20361;-79
2023/05/05 12:21:00;;;;;;;3.43;3.13;;;16.30;99.90;;;;;;6095735;23;20496;-78
2023/05/05 12:23:28;;;;;;;4.40;3.50;;;16.50;99.90;;;;;;6069940;23;20140;-78
2023/05/05 12:25:54;;;;;;;4.50;3.90;;;16.80;99.90;;;;;;6095663;23;20381;-77
2023/05/05 12:28:23;;;;;;;4.40;4.00;;;16.90;99.90;;;;;;6074900;23;20387;-78
2023/05/05 12:30:56;;;;;;;4.20;3.80;;;16.90;99.90;;;;;;6071257;23;20405;-77
2023/05/05 12:33:22;;;;;;;3.90;3.60;;;16.70;99.90;;;;;;6097390;23;20379;-79
2023/05/05 12:35:48;;;;;;;8.40;6.60;;;16.60;99.90;;;;;;6078859;23;20444;-77
2023/05/05 12:38:15;;;;;;;5.77;5.27;;;16.60;99.90;;;;;;6067807;23;20373;-79
2023/05/05 12:40:48;;;;;;;5.43;4.93;;;16.70;99.90;;;;;;6094703;23;20463;-78
2023/05/05 12:43:24;;;;;;;4.70;4.30;;;16.80;99.90;;;;;;6093662;23;20361;-79
2023/05/05 12:46:03;;;;;;;5.40;4.90;;;17.00;99.90;;;;;;6097025;23;20380;-78
2023/05/05 12:48:29;;;;;;;4.17;3.77;;;17.20;99.90;;;;;;6070605;23;20436;-76
2023/05/05 12:51:13;;;;;;;5.13;4.63;;;17.20;99.90;;;;;;6071168;23;20392;-78
2023/05/05 12:53:39;;;;;;;5.70;4.87;;;17.10;99.90;;;;;;6098635;23;20179;-80